createdAt,value
2019-03-26T00:03:03.758Z,8.10
2019-03-26T00:08:05.446Z,8.00
2019-03-26T00:13:07.147Z,8.63
2019-03-26T00:18:08.848Z,8.47
2019-03-26T00:23:10.547Z,9.17
2019-03-26T00:28:12.247Z,6.57
2019-03-26T00:33:13.947Z,7.33
2019-03-26T00:38:15.651Z,8.13
2019-03-26T00:43:17.451Z,8.60
2019-03-26T00:48:19.250Z,6.87
2019-03-26T00:53:20.952Z,7.00
2019-03-26T00:58:22.754Z,8.20
2019-03-26T01:03:25.575Z,7.40
2019-03-26T01:08:27.788Z,6.80
2019-03-26T01:13:29.589Z,7.60
2019-03-26T01:18:31.906Z,6.90
2019-03-26T01:23:33.638Z,6.57
2019-03-26T01:28:35.411Z,7.27
2019-03-26T01:33:37.726Z,6.93
2019-03-26T01:38:39.543Z,7.77
2019-03-26T01:43:41.637Z,7.07
2019-03-26T01:48:43.950Z,7.00
2019-03-26T01:53:45.637Z,6.30
2019-03-26T01:58:47.419Z,6.40
2019-03-26T02:03:49.109Z,4.40
2019-03-26T02:08:50.815Z,5.60
2019-03-26T02:13:53.027Z,4.97
2019-03-26T02:18:54.729Z,5.40
2019-03-26T02:23:56.427Z,5.33
2019-03-26T02:28:58.642Z,5.27
2019-03-26T02:34:00.442Z,4.67
2019-03-26T02:39:02.346Z,6.43
2019-03-26T02:44:04.767Z,6.80
2019-03-26T02:49:06.569Z,6.23
2019-03-26T02:54:08.268Z,4.90
2019-03-26T02:59:10.689Z,6.60
2019-03-26T03:04:12.287Z,5.77
2019-03-26T03:09:14.735Z,5.07
2019-03-26T03:14:16.706Z,5.23
2019-03-26T03:19:19.221Z,4.30
2019-03-26T03:24:20.923Z,3.23
2019-03-26T03:29:22.622Z,5.47
2019-03-26T03:34:24.745Z,4.10
2019-03-26T03:39:26.494Z,3.93
2019-03-26T03:44:28.642Z,3.83
2019-03-26T03:49:30.551Z,6.17
2019-03-26T03:54:34.323Z,5.27
2019-03-26T03:59:36.807Z,6.27
2019-03-26T04:04:38.500Z,5.67
2019-03-26T04:09:40.605Z,5.70
2019-03-26T04:14:42.750Z,6.97
2019-03-26T04:19:44.474Z,7.50
2019-03-26T04:24:46.118Z,5.93
2019-03-26T04:29:47.821Z,5.23
2019-03-26T04:34:49.609Z,5.87
2019-03-26T04:39:51.240Z,6.83
2019-03-26T04:44:53.417Z,5.07
2019-03-26T04:49:55.115Z,5.67
2019-03-26T04:54:56.809Z,7.03
2019-03-26T04:59:58.482Z,6.37
2019-03-26T05:05:00.425Z,7.33
2019-03-26T05:10:03.822Z,5.33
2019-03-26T05:15:06.270Z,4.97
2019-03-26T05:20:08.372Z,3.63
2019-03-26T05:25:10.232Z,5.33
2019-03-26T05:30:12.484Z,4.27
2019-03-26T05:35:14.296Z,3.83
2019-03-26T05:40:16.881Z,4.93
2019-03-26T05:45:19.124Z,3.90
2019-03-26T05:50:20.915Z,3.10
2019-03-26T05:55:23.265Z,3.40
2019-03-26T06:00:25.883Z,4.17
2019-03-26T06:05:27.550Z,4.47
2019-03-26T06:10:29.184Z,2.90
2019-03-26T06:15:30.797Z,3.07
2019-03-26T06:20:32.543Z,4.23
2019-03-26T06:25:35.164Z,4.27
2019-03-26T06:30:44.042Z,4.97
2019-03-26T06:35:46.267Z,4.37
2019-03-26T06:40:47.940Z,4.47
2019-03-26T06:45:53.628Z,6.80
2019-03-26T06:50:55.765Z,4.67
2019-03-26T06:55:57.829Z,3.77
2019-03-26T07:01:04.032Z,6.13
2019-03-26T07:06:06.164Z,4.93
2019-03-26T07:11:07.853Z,5.27
2019-03-26T07:16:09.457Z,5.00
2019-03-26T07:21:11.485Z,6.10
2019-03-26T07:26:13.576Z,5.50
2019-03-26T07:31:15.787Z,6.30
2019-03-26T07:36:17.584Z,6.30
2019-03-26T07:41:19.332Z,5.20
2019-03-26T07:46:21.244Z,3.43
2019-03-26T07:56:51.206Z,3.47
2019-03-26T08:01:58.333Z,4.90
2019-03-26T08:12:08.416Z,5.03
2019-03-26T08:17:10.065Z,3.67
2019-03-26T08:22:12.129Z,4.53
2019-03-26T08:27:13.812Z,4.80
2019-03-26T08:32:15.989Z,5.30
2019-03-26T08:37:17.974Z,3.37
2019-03-26T08:42:22.450Z,4.50
2019-03-26T08:47:24.192Z,4.50
2019-03-26T08:52:25.808Z,3.27
2019-03-26T08:57:27.494Z,4.40
2019-03-26T09:02:29.805Z,4.87
2019-03-26T09:07:31.543Z,4.33
2019-03-26T09:12:33.717Z,3.70
2019-03-26T09:17:35.754Z,3.97
2019-03-26T09:22:37.458Z,3.53
2019-03-26T09:27:39.173Z,3.50
2019-03-26T09:32:41.248Z,3.27
2019-03-26T09:37:43.042Z,3.77
2019-03-26T09:42:44.851Z,3.03
2019-03-26T09:47:46.614Z,4.13
2019-03-26T09:52:48.663Z,2.80
2019-03-26T09:57:50.401Z,3.07
2019-03-26T10:02:52.563Z,3.80
2019-03-26T10:07:54.262Z,5.83
2019-03-26T10:12:55.962Z,3.53
2019-03-26T10:17:57.660Z,3.63
2019-03-26T10:22:59.762Z,4.57
2019-03-26T10:28:01.481Z,3.97
2019-03-26T10:33:04.504Z,4.37
2019-03-26T10:38:06.299Z,4.03
2019-03-26T10:43:08.095Z,4.63
2019-03-26T10:48:10.055Z,4.57
2019-03-26T10:53:12.572Z,4.73
2019-03-26T10:58:14.294Z,3.10
2019-03-26T11:03:16.573Z,3.87
2019-03-26T11:08:18.234Z,3.10
2019-03-26T11:13:19.923Z,3.43
2019-03-26T11:18:21.490Z,4.10
2019-03-26T11:23:23.123Z,3.80
2019-03-26T11:28:28.511Z,3.10
2019-03-26T11:33:30.645Z,4.27
2019-03-26T11:38:32.385Z,3.50
2019-03-26T11:43:34.193Z,3.20
2019-03-26T11:48:35.990Z,3.50
2019-03-26T11:53:38.045Z,3.77
2019-03-26T11:58:39.673Z,3.50
2019-03-26T12:03:42.024Z,3.57
2019-03-26T12:08:43.671Z,4.50
2019-03-26T12:13:45.303Z,4.50
2019-03-26T12:18:47.038Z,4.47
2019-03-26T12:23:48.671Z,3.93
2019-03-26T12:28:50.642Z,5.30
2019-03-26T12:33:52.841Z,4.70
2019-03-26T12:38:54.425Z,5.00
2019-03-26T12:43:56.152Z,3.33
2019-03-26T12:48:58.768Z,3.97
2019-03-26T12:54:00.419Z,3.90
2019-03-26T12:59:02.413Z,4.10
2019-03-26T13:04:12.694Z,3.30
2019-03-26T13:09:08.431Z,3.53
2019-03-26T13:14:10.108Z,4.50
2019-03-26T13:19:11.747Z,3.87
2019-03-26T13:24:13.561Z,3.10
2019-03-26T13:29:15.249Z,4.43
2019-03-26T13:34:19.359Z,4.47
2019-03-26T13:39:21.079Z,4.50
2019-03-26T13:44:23.065Z,3.17
2019-03-26T13:49:25.018Z,2.80
2019-03-26T13:54:26.738Z,3.27
2019-03-26T13:59:28.407Z,2.90
2019-03-26T14:04:30.497Z,3.10
2019-03-26T14:09:32.140Z,3.37
2019-03-26T14:14:33.818Z,2.77
2019-03-26T14:19:35.447Z,2.57
2019-03-26T14:24:37.176Z,3.40
2019-03-26T14:29:38.953Z,2.60
2019-03-26T14:34:41.453Z,3.30
2019-03-26T14:39:43.207Z,3.30
2019-03-26T14:44:45.008Z,2.20
2019-03-26T14:49:48.348Z,3.17
2019-03-26T14:54:50.171Z,1.60
2019-03-26T14:59:51.875Z,2.03
2019-03-26T15:04:54.268Z,2.00
2019-03-26T15:09:55.944Z,2.20
2019-03-26T15:14:57.908Z,2.10
2019-03-26T15:19:59.501Z,1.50
2019-03-26T15:25:01.156Z,1.50
2019-03-26T15:30:05.763Z,1.50
2019-03-26T15:35:07.975Z,1.10
2019-03-26T15:40:13.150Z,1.63
2019-03-26T15:45:15.557Z,1.40
2019-03-26T15:50:23.636Z,1.60
2019-03-26T15:55:25.456Z,1.80
2019-03-26T16:00:28.848Z,1.70
2019-03-26T16:05:31.472Z,2.10
2019-03-26T16:10:33.143Z,3.90
2019-03-26T16:15:44.025Z,2.67
2019-03-26T16:20:38.537Z,3.73
2019-03-26T16:25:40.215Z,3.50
2019-03-26T16:30:42.220Z,4.10
2019-03-26T16:35:45.609Z,4.03
2019-03-26T16:40:47.282Z,4.13
2019-03-26T16:45:49.059Z,3.83
2019-03-26T16:50:51.243Z,4.20
2019-03-26T16:55:52.868Z,4.20
2019-03-26T17:00:54.521Z,3.90
2019-03-26T17:05:57.086Z,4.40
2019-03-26T17:10:58.762Z,4.30
2019-03-26T17:16:00.427Z,4.40
2019-03-26T17:21:02.066Z,3.73
2019-03-26T17:26:03.661Z,4.83
2019-03-26T17:31:05.355Z,4.03
2019-03-26T17:36:07.521Z,3.70
2019-03-26T17:41:09.218Z,5.10
2019-03-26T17:46:11.298Z,4.63
2019-03-26T17:51:13.035Z,5.87
2019-03-26T17:56:14.851Z,5.73
2019-03-26T18:01:16.526Z,5.10
2019-03-26T18:06:18.686Z,7.33
2019-03-26T18:11:20.390Z,7.33
2019-03-26T18:16:22.061Z,7.63
2019-03-26T18:21:23.697Z,6.17
2019-03-26T18:26:25.412Z,8.67
2019-03-26T18:31:27.125Z,8.70
2019-03-26T18:36:29.343Z,13.10
2019-03-26T18:41:33.221Z,9.33
2019-03-26T18:46:35.414Z,9.90
2019-03-26T18:51:37.159Z,21.80
2019-03-26T18:56:38.934Z,8.23
2019-03-26T19:01:41.333Z,9.33
2019-03-26T19:06:43.408Z,9.97
2019-03-26T19:11:44.994Z,8.80
2019-03-26T19:16:46.696Z,8.80
2019-03-26T19:21:48.329Z,11.33
2019-03-26T19:26:50.017Z,9.80
2019-03-26T19:31:51.821Z,9.27
2019-03-26T19:36:55.751Z,9.90
2019-03-26T19:41:57.537Z,9.47
2019-03-26T19:46:59.324Z,11.10
2019-03-26T19:52:01.197Z,11.83
2019-03-26T19:57:02.924Z,9.93
2019-03-26T20:02:04.638Z,11.47
2019-03-26T20:07:06.770Z,10.43
2019-03-26T20:12:08.456Z,9.83
2019-03-26T20:17:10.146Z,8.83
2019-03-26T20:22:11.842Z,9.63
2019-03-26T20:27:13.637Z,9.93
2019-03-26T20:32:15.398Z,8.60
2019-03-26T20:37:17.488Z,10.00
2019-03-26T20:42:19.178Z,9.03
2019-03-26T20:47:20.872Z,9.83
2019-03-26T20:52:22.670Z,10.40
2019-03-26T20:57:24.990Z,8.80
2019-03-26T21:02:26.820Z,9.93
2019-03-26T21:07:31.570Z,8.97
2019-03-26T21:12:33.710Z,9.07
2019-03-26T21:17:36.339Z,9.07
2019-03-26T21:22:38.029Z,10.30
2019-03-26T21:27:44.745Z,9.57
2019-03-26T21:32:46.527Z,11.63
2019-03-26T21:37:48.195Z,10.67
2019-03-26T21:42:50.186Z,9.90
2019-03-26T21:47:51.900Z,11.67
2019-03-26T21:52:53.694Z,11.00
2019-03-26T21:57:55.394Z,9.30
2019-03-26T22:02:57.002Z,9.40
2019-03-26T22:07:59.330Z,11.50
2019-03-26T22:13:01.065Z,8.70
2019-03-26T22:18:02.719Z,8.33
2019-03-26T22:23:04.588Z,11.43
2019-03-26T22:28:07.357Z,10.83
2019-03-26T22:33:09.118Z,9.67
2019-03-26T22:38:10.842Z,11.63
2019-03-26T22:43:12.674Z,9.83
2019-03-26T22:48:14.381Z,10.13
2019-03-26T22:53:19.012Z,10.50
2019-03-26T22:58:23.726Z,10.57
2019-03-26T23:03:25.917Z,10.43
2019-03-26T23:08:28.002Z,9.13
2019-03-26T23:13:29.700Z,8.83
2019-03-26T23:18:31.417Z,9.90
2019-03-26T23:23:34.793Z,10.13
2019-03-26T23:28:37.270Z,10.43
2019-03-26T23:33:39.493Z,9.83
2019-03-26T23:38:41.487Z,10.27
2019-03-26T23:43:43.450Z,10.90
2019-03-26T23:48:45.238Z,10.17
2019-03-26T23:53:49.701Z,8.60
2019-03-26T23:58:51.772Z,9.90
